Flight Track Log - Related Links

Times and Time Zones

All times are in EDT time to prevent confusion due to time zone crossing. See the N560MM flight status page for this flight to view local times or setup timezone preferences in your user account.

Time Position Orientation Groundspeed Altitude Reporting Facility
EDT Latitude Longitude Course Direction KTS MPH feet Rate Location/Type
Sun 05:31:51 PM 35.1533 -101.7525 58° Northeast 201 231 7,900  Level Albuquerque Center
Sun 05:32:53 PM 35.1861 -101.6731 63° Northeast 213 245 10,800 2,758 Climbing Albuquerque Center
Sun 05:33:55 PM 35.2144 -101.6014 64° Northeast 234 269 13,600 2,585 Climbing Albuquerque Center
Sun 05:34:56 PM 35.2439 -101.5281 64° Northeast 243 280 16,100 2,293 Climbing Albuquerque Center
Sun 05:35:58 PM 35.2744 -101.4478 65° Northeast 256 295 18,300 2,323 Climbing Albuquerque Center
Sun 05:36:00 PM 35.4158 -101.1291 65° Northeast  Level FlightAware Approximate
Sun 05:37:00 PM 35.4655 -101.0190 58° Northeast  Level FlightAware Approximate
Sun 05:37:00 PM 35.3150 -101.3436 64° Northeast 279 321 20,900  Level Albuquerque Center
Sun 05:38:02 PM 35.3497 -101.2525 65° Northeast 291 335 23,100 1,887 Climbing Albuquerque Center
Sun 05:39:04 PM 35.3867 -101.1553 65° Northeast 309 356 24,800 1,790 Climbing Albuquerque Center
Sun 05:40:06 PM 35.4253 -101.0528 65° Northeast 326 375 26,800 2,032 Climbing Albuquerque Center
Sun 05:41:08 PM 35.4631 -100.9522 65° Northeast 327 376 29,000 2,032 Climbing Albuquerque Center
Sun 05:42:10 PM 35.4992 -100.8522 66° East 323 372 31,000 1,902 Climbing Albuquerque Center
Sun 05:43:11 PM 35.5444 -100.7336 65° Northeast 321 369 32,900 1,610 Climbing Albuquerque Center
Sun 05:44:13 PM 35.5817 -100.6314 66° East 326 375 34,300 1,219 Climbing Albuquerque Center
Sun 05:46:18 PM 35.6603 -100.4219 65° Northeast 337 388 36,700 871 Climbing Kansas City Center
Sun 05:47:19 PM 35.7011 -100.3083 66° East 356 410 37,000 146 Climbing Albuquerque Center
Sun 05:48:21 PM 35.7461 -100.1867 65° Northeast 384 442 37,000  Level Albuquerque Center
Sun 05:49:22 PM 35.7933 -100.0572 66° East 407 468 37,000  Level Albuquerque Center
Sun 05:50:24 PM 35.8506 -99.8997 66° East 419 482 37,000 238 Level Albuquerque Center
Sun 05:51:28 PM 35.9000 -99.7647 66° East 428 493 37,500 810 Climbing Kansas City Center
Sun 05:52:30 PM 35.9444 -99.6497 64° Northeast 418 481 38,700 726 Climbing Kansas City Center
Sun 05:53:32 PM 35.9931 -99.5056 67° East 401 461 39,000 145 Climbing Kansas City Center
Sun 05:54:34 PM 36.0414 -99.3681 66° East 409 471 39,000  Level Kansas City Center
Sun 05:55:36 PM 36.0906 -99.2344 65° Northeast 419 482 39,000  Level Kansas City Center
Sun 05:56:38 PM 36.1383 -99.0997 66° East 426 490 39,000  Level Kansas City Center
Sun 05:57:40 PM 36.1872 -98.9653 66° East 429 494 39,000  Level Kansas City Center
Sun 05:58:42 PM 36.2342 -98.8297 67° East 428 493 39,000  Level Kansas City Center
Sun 05:59:44 PM 36.2908 -98.6658 67° East 430 495 39,000  Level Kansas City Center
Sun 06:00:45 PM 36.3389 -98.5292 66° East 432 497 39,000  Level Kansas City Center
Sun 06:01:47 PM 36.3864 -98.3925 67° East 432 497 39,000  Level Kansas City Center
Sun 06:02:49 PM 36.4333 -98.2569 67° East 429 494 39,000  Level Kansas City Center
Sun 06:03:51 PM 36.4808 -98.1203 67° East 431 496 39,000  Level Kansas City Center
Sun 06:04:53 PM 36.5269 -97.9825 67° East 431 496 39,000  Level Kansas City Center
Sun 06:05:55 PM 36.5764 -97.8356 67° East 430 495 39,000  Level Kansas City Center
Sun 06:06:57 PM 36.6228 -97.7003 67° East 430 495 39,000  Level Kansas City Center
Sun 06:07:59 PM 36.6681 -97.5639 67° East 429 494 39,000  Level Kansas City Center
Sun 06:09:01 PM 36.7206 -97.4083 67° East 428 493 39,000  Level Kansas City Center
Sun 06:10:03 PM 36.7656 -97.2742 67° East 423 487 39,000  Level Kansas City Center
Sun 06:11:05 PM 36.8106 -97.1375 68° East 424 488 39,000  Level Kansas City Center
Sun 06:12:07 PM 36.8553 -96.9994 68° East 417 480 39,000  Level Kansas City Center
Sun 06:13:09 PM 36.8981 -96.8678 68° East 413 475 39,000  Level Kansas City Center
Sun 06:14:10 PM 36.9447 -96.7253 68° East 421 484 39,000  Level Kansas City Center
Sun 06:15:12 PM 36.9908 -96.5878 67° East 426 490 39,000  Level Kansas City Center
Sun 06:16:14 PM 37.0367 -96.4481 68° East 429 494 39,000  Level Kansas City Center
Sun 06:17:16 PM 37.0917 -96.2800 68° East 432 497 39,000  Level Kansas City Center
Sun 06:18:18 PM 37.1372 -96.1381 68° East 435 501 39,000  Level Kansas City Center
Sun 06:19:20 PM 37.1819 -95.9983 68° East 433 498 39,000  Level Kansas City Center
Sun 06:20:22 PM 37.2269 -95.8569 68° East 433 498 39,000  Level Kansas City Center
Sun 06:21:24 PM 37.2714 -95.7172 68° East 430 495 39,000  Level Kansas City Center
Sun 06:22:25 PM 37.3144 -95.5772 69° East 428 493 39,000  Level Kansas City Center
Sun 06:23:27 PM 37.3589 -95.4397 68° East 424 488 39,000  Level Kansas City Center
Sun 06:24:29 PM 37.4011 -95.3050 68° East 417 480 39,000  Level Kansas City Center
Sun 06:25:31 PM 37.4519 -95.1417 69° East 415 478 39,000  Level Kansas City Center
Sun 06:26:33 PM 37.4936 -95.0058 69° East 416 479 39,000  Level Kansas City Center
Sun 06:27:34 PM 37.5361 -94.8672 69° East 420 483 39,000  Level Kansas City Center
Sun 06:28:36 PM 37.5786 -94.7297 69° East 421 484 39,000  Level Kansas City Center
Sun 06:30:00 PM 37.6097 -94.5538 78° East  Level FlightAware Approximate
Sun 06:30:40 PM 37.6397 -94.4456 78° East 426 490 39,000  Level Kansas City Center
Sun 06:31:42 PM 37.6614 -94.3008 79° East 421 484 39,000  Level Kansas City Center
Sun 06:33:00 PM 37.6863 -94.1360 79° East  Level FlightAware Approximate
Sun 06:33:46 PM 37.7094 -93.9917 79° East 416 479 39,000  Level Kansas City Center
Sun 06:34:48 PM 37.7322 -93.8486 79° East 413 475 39,000  Level Kansas City Center
Sun 06:35:49 PM 37.7533 -93.7044 79° East 417 480 39,000  Level Kansas City Center
Sun 06:36:51 PM 37.7747 -93.5622 79° East 413 475 39,000  Level Kansas City Center
Sun 06:37:53 PM 37.7961 -93.4194 79° East 412 474 39,000  Level Kansas City Center
Sun 06:38:55 PM 37.8164 -93.2786 80° East 408 470 39,000 -242 Level Kansas City Center
Sun 06:39:57 PM 37.8417 -93.1067 79° East 412 474 38,500 -677 Descending Kansas City Center
Sun 06:40:59 PM 37.8622 -92.9700 79° East 402 463 37,600 -871 Descending Kansas City Center
Sun 06:42:01 PM 37.8817 -92.8344 80° East 395 455 36,700 -871 Descending Kansas City Center
Sun 06:43:03 PM 37.8997 -92.7058 80° East 388 447 35,800 -1,024 Descending Kansas City Center
Sun 06:44:04 PM 37.9181 -92.5778 80° East 378 435 34,600 -1,073 Descending Kansas City Center
Sun 06:45:06 PM 37.9350 -92.4522 80° East 369 425 33,600 -1,355 Descending Kansas City Center
Sun 06:47:10 PM 37.9683 -92.2069 80° East 322 371 30,400 -1,710 Descending Kansas City Center
Sun 06:48:12 PM 37.9842 -92.0972 80° East 318 366 28,300 -2,081 Descending Kansas City Center
Sun 06:49:14 PM 38.0300 -91.9986 59° Northeast 330 380 26,100 -1,984 Descending Kansas City Center
Sun 06:50:16 PM 38.0758 -91.8925 61° Northeast 340 391 24,200 -1,854 Descending Kansas City Center
Sun 06:51:17 PM 38.1317 -91.7722 59° Northeast 331 381 22,300 -1,659 Descending Kansas City Center
Sun 06:52:19 PM 38.1753 -91.6744 60° Northeast 321 369 20,800 -1,403 Descending Kansas City Center
Sun 06:53:21 PM 38.2192 -91.5797 59° Northeast 313 360 19,400 -1,355 Descending Kansas City Center
Sun 06:54:23 PM 38.2603 -91.4872 60° Northeast 306 352 18,000 -1,403 Descending Kansas City Center
Sun 06:55:25 PM 38.2997 -91.3964 61° Northeast 299 344 16,500 -1,512 Descending Kansas City Center
Sun 06:56:26 PM 38.3431 -91.3036 59° Northeast 301 346 14,900 -1,650 Descending Kansas City Center
Sun 06:58:05 PM 38.4167 -91.1500 59° Northeast 294 338 12,100 -1,355 Descending Gateway (St. Louis) TRACON
Sun 06:58:30 PM 38.4244 -91.1200 72° East 300 345 12,100  Level Kansas City Center
Sun 06:59:32 PM 38.4647 -91.0292 60° Northeast 296 341 12,100 -746 Level Kansas City Center
Sun 07:01:35 PM 38.5569 -90.8222 60° Northeast 304 350 9,800 -1,103 Descending Kansas City Center
Sun 07:02:37 PM 38.5958 -90.7350 60° Northeast 291 335 8,700 -1,065 Descending Kansas City Center
Sun 07:03:39 PM 38.6069 -90.6506 80° East 267 307 7,600 -1,258 Descending Kansas City Center
Sun 07:04:41 PM 38.6014 -90.5592 94° East 263 303 6,100 -1,452 Descending Kansas City Center
Sun 07:05:43 PM 38.6361 -90.4900 57° Northeast 254 292 4,600 -968 Descending Kansas City Center
Sun 07:06:45 PM 38.6972 -90.4250 40° Northeast 242 278 4,100 -293 Descending Kansas City Center
Sun 07:07:46 PM 38.7369 -90.3803 41° Northeast 233 268 4,000  Descending Kansas City Center
Sun 07:08:48 PM 38.7850 -90.3325 38° Northeast 226 260 4,100 48 Climbing Kansas City Center
Sun 07:09:50 PM 38.8506 -90.3097 15° North 216 249 4,100 -242 Level Kansas City Center
Sun 07:10:52 PM 38.9039 -90.3008 North 202 232 3,600 -581 Descending Kansas City Center
Sun 07:11:54 PM 38.9181 -90.2369 74° East 196 226 2,900 -629 Descending Kansas City Center
Sun 07:12:56 PM 38.9222 -90.1692 85° East 192 221 2,300 -581 Descending Kansas City Center
Sun 07:13:58 PM 38.9169 -90.1194 98° East 155 178 1,700 -585 Descending Kansas City Center
Sun 07:14:59 PM 38.9047 -90.0828 113° Southeast 128 147 1,100 -488 Descending Kansas City Center
Sun 07:16:01 PM 38.8936 -90.0481 112° Southeast 113 130 700 -387 Descending Kansas City Center

Login

Don't have an account? Register now (free) for customized features, flight alerts, and more!